sensor_id;sensor_type;location;lat;lon;timestamp;temperature;humidity
34698;DHT22;61391;50.922;6.928;2023-02-25T00:03:45;6.40;99.90
34698;DHT22;61391;50.922;6.928;2023-02-25T00:06:13;6.50;99.90
34698;DHT22;61391;50.922;6.928;2023-02-25T00:08:42;6.50;99.90
34698;DHT22;61391;50.922;6.928;2023-02-25T00:11:10;6.50;99.90
34698;DHT22;61391;50.922;6.928;2023-02-25T00:13:39;6.40;99.90
34698;DHT22;61391;50.922;6.928;2023-02-25T00:19:27;6.60;99.90
34698;DHT22;61391;50.922;6.928;2023-02-25T00:21:53;6.40;99.90
34698;DHT22;61391;50.922;6.928;2023-02-25T00:24:18;6.40;99.90
34698;DHT22;61391;50.922;6.928;2023-02-25T00:30:24;6.50;99.90
34698;DHT22;61391;50.922;6.928;2023-02-25T00:32:50;6.40;99.90
34698;DHT22;61391;50.922;6.928;2023-02-25T00:35:15;6.60;99.90
34698;DHT22;61391;50.922;6.928;2023-02-25T00:37:41;6.40;99.90
34698;DHT22;61391;50.922;6.928;2023-02-25T00:40:08;6.50;99.90
34698;DHT22;61391;50.922;6.928;2023-02-25T00:42:40;6.50;99.90
34698;DHT22;61391;50.922;6.928;2023-02-25T00:48:28;6.60;99.90
34698;DHT22;61391;50.922;6.928;2023-02-25T00:50:53;6.40;99.90
34698;DHT22;61391;50.922;6.928;2023-02-25T00:53:19;6.50;99.90
34698;DHT22;61391;50.922;6.928;2023-02-25T00:59:06;6.60;99.90
34698;DHT22;61391;50.922;6.928;2023-02-25T01:01:32;6.50;99.90
34698;DHT22;61391;50.922;6.928;2023-02-25T01:03:58;6.60;99.90
34698;DHT22;61391;50.922;6.928;2023-02-25T01:06:25;6.60;99.90
34698;DHT22;61391;50.922;6.928;2023-02-25T01:08:51;6.40;99.90
34698;DHT22;61391;50.922;6.928;2023-02-25T01:11:29;6.20;99.90
34698;DHT22;61391;50.922;6.928;2023-02-25T01:14:02;6.20;99.90
34698;DHT22;61391;50.922;6.928;2023-02-25T01:16:29;6.20;99.90
34698;DHT22;61391;50.922;6.928;2023-02-25T01:18:57;6.20;99.90
34698;DHT22;61391;50.922;6.928;2023-02-25T01:21:29;6.20;99.90
34698;DHT22;61391;50.922;6.928;2023-02-25T01:24:16;6.10;99.90
34698;DHT22;61391;50.922;6.928;2023-02-25T01:26:44;6.20;99.90
34698;DHT22;61391;50.922;6.928;2023-02-25T01:29:14;6.20;99.90
34698;DHT22;61391;50.922;6.928;2023-02-25T01:31:40;6.30;99.90
34698;DHT22;61391;50.922;6.928;2023-02-25T01:34:09;6.40;99.90
34698;DHT22;61391;50.922;6.928;2023-02-25T01:36:35;6.40;99.90
34698;DHT22;61391;50.922;6.928;2023-02-25T01:39:02;6.40;99.90
34698;DHT22;61391;50.922;6.928;2023-02-25T01:41:29;6.40;99.90
34698;DHT22;61391;50.922;6.928;2023-02-25T01:47:20;6.40;99.90
34698;DHT22;61391;50.922;6.928;2023-02-25T01:49:46;6.40;99.90
34698;DHT22;61391;50.922;6.928;2023-02-25T01:52:15;6.50;99.90
34698;DHT22;61391;50.922;6.928;2023-02-25T01:54:44;6.50;99.90
34698;DHT22;61391;50.922;6.928;2023-02-25T01:57:12;6.40;99.90
34698;DHT22;61391;50.922;6.928;2023-02-25T01:59:40;6.40;99.90
34698;DHT22;61391;50.922;6.928;2023-02-25T02:02:12;6.50;99.90
34698;DHT22;61391;50.922;6.928;2023-02-25T02:08:00;6.60;99.90
34698;DHT22;61391;50.922;6.928;2023-02-25T02:10:26;6.60;99.90
34698;DHT22;61391;50.922;6.928;2023-02-25T02:12:51;6.60;99.90
34698;DHT22;61391;50.922;6.928;2023-02-25T02:15:17;6.60;99.90
34698;DHT22;61391;50.922;6.928;2023-02-25T02:29:47;6.40;99.90
34698;DHT22;61391;50.922;6.928;2023-02-25T02:32:56;6.40;99.90
34698;DHT22;61391;50.922;6.928;2023-02-25T02:38:15;6.00;99.90
34698;DHT22;61391;50.922;6.928;2023-02-25T02:46:07;6.10;99.90
34698;DHT22;61391;50.922;6.928;2023-02-25T02:48:45;6.10;99.90
34698;DHT22;61391;50.922;6.928;2023-02-25T02:51:21;6.10;99.90
34698;DHT22;61391;50.922;6.928;2023-02-25T02:53:53;6.20;99.90
34698;DHT22;61391;50.922;6.928;2023-02-25T02:56:21;6.20;99.90
34698;DHT22;61391;50.922;6.928;2023-02-25T02:58:56;6.20;99.90
34698;DHT22;61391;50.922;6.928;2023-02-25T03:01:28;6.30;99.90
34698;DHT22;61391;50.922;6.928;2023-02-25T03:07:16;6.40;99.90
34698;DHT22;61391;50.922;6.928;2023-02-25T03:09:48;6.20;99.90
34698;DHT22;61391;50.922;6.928;2023-02-25T03:12:13;6.20;99.90
34698;DHT22;61391;50.922;6.928;2023-02-25T03:14:39;6.20;99.90
34698;DHT22;61391;50.922;6.928;2023-02-25T03:24:11;6.40;99.90
34698;DHT22;61391;50.922;6.928;2023-02-25T03:26:38;6.10;99.90
34698;DHT22;61391;50.922;6.928;2023-02-25T03:29:12;6.10;99.90
34698;DHT22;61391;50.922;6.928;2023-02-25T03:31:54;6.10;99.90
34698;DHT22;61391;50.922;6.928;2023-02-25T03:34:32;6.10;99.90
34698;DHT22;61391;50.922;6.928;2023-02-25T03:37:01;6.20;99.90
34698;DHT22;61391;50.922;6.928;2023-02-25T03:39:35;6.20;99.90
34698;DHT22;61391;50.922;6.928;2023-02-25T03:42:03;6.20;99.90
34698;DHT22;61391;50.922;6.928;2023-02-25T03:44:43;6.30;99.90
34698;DHT22;61391;50.922;6.928;2023-02-25T03:47:10;6.40;99.90
34698;DHT22;61391;50.922;6.928;2023-02-25T03:49:45;6.30;99.90
34698;DHT22;61391;50.922;6.928;2023-02-25T03:52:16;6.10;99.90
34698;DHT22;61391;50.922;6.928;2023-02-25T03:54:49;6.10;99.90
34698;DHT22;61391;50.922;6.928;2023-02-25T03:57:16;6.10;99.90
34698;DHT22;61391;50.922;6.928;2023-02-25T03:59:42;6.20;99.90
34698;DHT22;61391;50.922;6.928;2023-02-25T04:02:08;6.20;99.90
34698;DHT22;61391;50.922;6.928;2023-02-25T04:04:35;6.10;99.90
34698;DHT22;61391;50.922;6.928;2023-02-25T04:07:01;6.00;99.90
34698;DHT22;61391;50.922;6.928;2023-02-25T04:09:26;6.00;99.90
34698;DHT22;61391;50.922;6.928;2023-02-25T04:11:52;6.00;99.90
34698;DHT22;61391;50.922;6.928;2023-02-25T04:17:43;5.90;99.90
34698;DHT22;61391;50.922;6.928;2023-02-25T04:20:11;6.20;99.90
34698;DHT22;61391;50.922;6.928;2023-02-25T04:22:37;6.10;99.90
34698;DHT22;61391;50.922;6.928;2023-02-25T04:25:03;6.10;99.90
34698;DHT22;61391;50.922;6.928;2023-02-25T04:27:29;6.10;99.90
34698;DHT22;61391;50.922;6.928;2023-02-25T04:29:57;6.10;99.90
34698;DHT22;61391;50.922;6.928;2023-02-25T04:32:22;6.30;99.90
34698;DHT22;61391;50.922;6.928;2023-02-25T04:38:10;6.20;99.90
34698;DHT22;61391;50.922;6.928;2023-02-25T04:40:36;6.10;99.90
34698;DHT22;61391;50.922;6.928;2023-02-25T04:43:01;6.10;99.90
34698;DHT22;61391;50.922;6.928;2023-02-25T04:45:27;5.90;99.90
34698;DHT22;61391;50.922;6.928;2023-02-25T04:47:54;6.00;99.90
34698;DHT22;61391;50.922;6.928;2023-02-25T04:50:22;6.00;99.90
34698;DHT22;61391;50.922;6.928;2023-02-25T04:56:10;6.00;99.90
34698;DHT22;61391;50.922;6.928;2023-02-25T04:58:36;5.90;99.90
34698;DHT22;61391;50.922;6.928;2023-02-25T05:01:04;6.10;99.90
34698;DHT22;61391;50.922;6.928;2023-02-25T05:03:31;6.10;99.90
34698;DHT22;61391;50.922;6.928;2023-02-25T05:05:57;6.10;99.90
34698;DHT22;61391;50.922;6.928;2023-02-25T05:08:23;6.30;99.90
34698;DHT22;61391;50.922;6.928;2023-02-25T05:10:49;6.30;99.90
34698;DHT22;61391;50.922;6.928;2023-02-25T05:13:15;6.30;99.90
34698;DHT22;61391;50.922;6.928;2023-02-25T05:15:41;6.30;99.90
34698;DHT22;61391;50.922;6.928;2023-02-25T05:18:06;6.30;99.90
34698;DHT22;61391;50.922;6.928;2023-02-25T05:20:32;6.10;99.90
34698;DHT22;61391;50.922;6.928;2023-02-25T05:26:21;6.20;99.90
34698;DHT22;61391;50.922;6.928;2023-02-25T05:28:51;6.30;99.90
34698;DHT22;61391;50.922;6.928;2023-02-25T05:31:17;6.30;99.90
34698;DHT22;61391;50.922;6.928;2023-02-25T05:33:43;6.30;99.90
34698;DHT22;61391;50.922;6.928;2023-02-25T05:36:12;6.10;99.90
34698;DHT22;61391;50.922;6.928;2023-02-25T05:38:38;6.00;99.90
34698;DHT22;61391;50.922;6.928;2023-02-25T05:41:05;6.20;99.90
34698;DHT22;61391;50.922;6.928;2023-02-25T05:43:31;6.20;99.90
34698;DHT22;61391;50.922;6.928;2023-02-25T05:45:58;6.20;99.90
34698;DHT22;61391;50.922;6.928;2023-02-25T05:48:24;6.00;99.90
34698;DHT22;61391;50.922;6.928;2023-02-25T05:50:51;6.10;99.90
34698;DHT22;61391;50.922;6.928;2023-02-25T05:53:23;6.00;99.90
34698;DHT22;61391;50.922;6.928;2023-02-25T05:55:48;6.10;99.90
34698;DHT22;61391;50.922;6.928;2023-02-25T05:58:14;6.20;99.90
34698;DHT22;61391;50.922;6.928;2023-02-25T06:00:40;6.20;99.90
34698;DHT22;61391;50.922;6.928;2023-02-25T06:03:05;6.20;99.90
34698;DHT22;61391;50.922;6.928;2023-02-25T06:05:31;6.20;99.90
34698;DHT22;61391;50.922;6.928;2023-02-25T06:07:57;6.10;99.90
34698;DHT22;61391;50.922;6.928;2023-02-25T06:10:24;6.10;99.90
34698;DHT22;61391;50.922;6.928;2023-02-25T06:12:50;6.00;99.90
34698;DHT22;61391;50.922;6.928;2023-02-25T06:15:15;5.90;99.90
34698;DHT22;61391;50.922;6.928;2023-02-25T06:21:04;6.10;99.90
34698;DHT22;61391;50.922;6.928;2023-02-25T06:23:31;6.10;99.90
34698;DHT22;61391;50.922;6.928;2023-02-25T06:25:57;6.20;99.90
34698;DHT22;61391;50.922;6.928;2023-02-25T06:28:23;6.20;99.90
34698;DHT22;61391;50.922;6.928;2023-02-25T06:30:48;6.10;99.90
34698;DHT22;61391;50.922;6.928;2023-02-25T06:36:36;6.30;99.90
34698;DHT22;61391;50.922;6.928;2023-02-25T06:39:01;6.30;99.90
34698;DHT22;61391;50.922;6.928;2023-02-25T06:41:27;6.20;99.90
34698;DHT22;61391;50.922;6.928;2023-02-25T06:43:53;6.30;99.90
34698;DHT22;61391;50.922;6.928;2023-02-25T06:46:22;6.10;99.90
34698;DHT22;61391;50.922;6.928;2023-02-25T06:48:48;6.30;99.90
34698;DHT22;61391;50.922;6.928;2023-02-25T06:54:35;6.00;99.90
34698;DHT22;61391;50.922;6.928;2023-02-25T06:57:01;5.90;99.90
34698;DHT22;61391;50.922;6.928;2023-02-25T06:59:26;5.90;99.90
34698;DHT22;61391;50.922;6.928;2023-02-25T07:05:23;6.20;99.90
34698;DHT22;61391;50.922;6.928;2023-02-25T07:07:48;6.20;99.90
34698;DHT22;61391;50.922;6.928;2023-02-25T07:10:14;6.20;99.90
34698;DHT22;61391;50.922;6.928;2023-02-25T07:12:39;6.30;99.90
34698;DHT22;61391;50.922;6.928;2023-02-25T07:15:06;6.30;99.90
34698;DHT22;61391;50.922;6.928;2023-02-25T07:17:31;6.10;99.90
34698;DHT22;61391;50.922;6.928;2023-02-25T07:19:57;6.10;99.90
34698;DHT22;61391;50.922;6.928;2023-02-25T07:25:44;6.00;99.90
34698;DHT22;61391;50.922;6.928;2023-02-25T07:28:11;6.00;99.90
34698;DHT22;61391;50.922;6.928;2023-02-25T07:30:36;6.00;99.90
34698;DHT22;61391;50.922;6.928;2023-02-25T07:33:02;6.10;99.90
34698;DHT22;61391;50.922;6.928;2023-02-25T07:35:27;6.20;99.90
34698;DHT22;61391;50.922;6.928;2023-02-25T07:41:16;6.40;99.90
34698;DHT22;61391;50.922;6.928;2023-02-25T07:43:42;6.50;99.90
34698;DHT22;61391;50.922;6.928;2023-02-25T07:46:08;6.50;99.90
34698;DHT22;61391;50.922;6.928;2023-02-25T07:48:35;6.40;99.90
34698;DHT22;61391;50.922;6.928;2023-02-25T07:54:22;6.70;99.90
34698;DHT22;61391;50.922;6.928;2023-02-25T07:56:48;6.70;99.90
34698;DHT22;61391;50.922;6.928;2023-02-25T07:59:17;6.60;99.90
34698;DHT22;61391;50.922;6.928;2023-02-25T08:01:43;6.50;99.90
34698;DHT22;61391;50.922;6.928;2023-02-25T08:07:31;6.50;99.90
34698;DHT22;61391;50.922;6.928;2023-02-25T08:09:57;6.70;99.90
34698;DHT22;61391;50.922;6.928;2023-02-25T08:15:46;6.70;99.90
34698;DHT22;61391;50.922;6.928;2023-02-25T08:18:12;6.50;99.90
34698;DHT22;61391;50.922;6.928;2023-02-25T08:20:37;6.60;99.90
34698;DHT22;61391;50.922;6.928;2023-02-25T08:23:03;6.60;99.90
34698;DHT22;61391;50.922;6.928;2023-02-25T08:25:29;6.60;99.90
34698;DHT22;61391;50.922;6.928;2023-02-25T08:27:55;6.80;99.90
34698;DHT22;61391;50.922;6.928;2023-02-25T08:30:22;6.70;99.90
34698;DHT22;61391;50.922;6.928;2023-02-25T08:36:15;7.10;99.90
34698;DHT22;61391;50.922;6.928;2023-02-25T08:38:41;7.60;99.90
34698;DHT22;61391;50.922;6.928;2023-02-25T08:41:07;7.80;99.90
34698;DHT22;61391;50.922;6.928;2023-02-25T08:43:34;7.70;99.90
34698;DHT22;61391;50.922;6.928;2023-02-25T08:46:00;7.80;99.90
34698;DHT22;61391;50.922;6.928;2023-02-25T08:48:26;7.70;99.90
34698;DHT22;61391;50.922;6.928;2023-02-25T08:50:52;7.70;99.90
34698;DHT22;61391;50.922;6.928;2023-02-25T08:53:17;7.60;99.90
34698;DHT22;61391;50.922;6.928;2023-02-25T08:55:43;7.60;99.90
34698;DHT22;61391;50.922;6.928;2023-02-25T08:58:09;7.50;99.90
34698;DHT22;61391;50.922;6.928;2023-02-25T09:00:43;7.50;99.90
34698;DHT22;61391;50.922;6.928;2023-02-25T09:03:09;7.50;99.90
34698;DHT22;61391;50.922;6.928;2023-02-25T09:08:56;7.30;99.90
34698;DHT22;61391;50.922;6.928;2023-02-25T09:14:44;7.10;99.90
34698;DHT22;61391;50.922;6.928;2023-02-25T09:17:09;7.00;99.90
34698;DHT22;61391;50.922;6.928;2023-02-25T09:19:35;6.90;99.90
34698;DHT22;61391;50.922;6.928;2023-02-25T09:25:25;6.60;99.90
34698;DHT22;61391;50.922;6.928;2023-02-25T09:27:51;6.60;99.90
34698;DHT22;61391;50.922;6.928;2023-02-25T09:30:17;6.60;99.90
34698;DHT22;61391;50.922;6.928;2023-02-25T09:32:42;6.80;99.90
34698;DHT22;61391;50.922;6.928;2023-02-25T09:38:31;7.00;99.90
34698;DHT22;61391;50.922;6.928;2023-02-25T09:44:26;6.80;99.90
34698;DHT22;61391;50.922;6.928;2023-02-25T09:50:22;7.10;99.90
34698;DHT22;61391;50.922;6.928;2023-02-25T09:56:14;7.20;99.90
34698;DHT22;61391;50.922;6.928;2023-02-25T09:58:59;7.50;99.90
34698;DHT22;61391;50.922;6.928;2023-02-25T10:11:17;9.70;99.90
34698;DHT22;61391;50.922;6.928;2023-02-25T10:27:27;9.60;99.90
34698;DHT22;61391;50.922;6.928;2023-02-25T10:33:21;9.50;99.90
34698;DHT22;61391;50.922;6.928;2023-02-25T10:39:10;9.60;99.90
34698;DHT22;61391;50.922;6.928;2023-02-25T10:41:36;9.60;99.90
34698;DHT22;61391;50.922;6.928;2023-02-25T10:44:01;9.80;99.90
34698;DHT22;61391;50.922;6.928;2023-02-25T10:50:11;9.70;99.90
34698;DHT22;61391;50.922;6.928;2023-02-25T10:52:54;9.80;99.90
34698;DHT22;61391;50.922;6.928;2023-02-25T10:55:44;9.90;99.90
34698;DHT22;61391;50.922;6.928;2023-02-25T10:58:42;9.60;99.90
34698;DHT22;61391;50.922;6.928;2023-02-25T11:01:11;9.70;99.90
34698;DHT22;61391;50.922;6.928;2023-02-25T11:03:52;9.50;99.90
34698;DHT22;61391;50.922;6.928;2023-02-25T11:06:28;9.00;99.90
34698;DHT22;61391;50.922;6.928;2023-02-25T11:08:56;8.80;99.90
34698;DHT22;61391;50.922;6.928;2023-02-25T11:11:34;8.00;99.90
34698;DHT22;61391;50.922;6.928;2023-02-25T11:17:23;6.30;99.90
34698;DHT22;61391;50.922;6.928;2023-02-25T11:20:00;5.80;99.90
34698;DHT22;61391;50.922;6.928;2023-02-25T11:22:35;5.50;99.90
34698;DHT22;61391;50.922;6.928;2023-02-25T11:25:04;5.50;99.90
34698;DHT22;61391;50.922;6.928;2023-02-25T11:27:35;5.50;99.90
34698;DHT22;61391;50.922;6.928;2023-02-25T11:30:06;5.40;99.90
34698;DHT22;61391;50.922;6.928;2023-02-25T11:35:55;5.60;99.90
34698;DHT22;61391;50.922;6.928;2023-02-25T11:38:29;5.80;99.90
34698;DHT22;61391;50.922;6.928;2023-02-25T11:40:56;6.00;99.90
34698;DHT22;61391;50.922;6.928;2023-02-25T11:43:35;6.10;99.90
34698;DHT22;61391;50.922;6.928;2023-02-25T11:46:06;6.30;99.90
34698;DHT22;61391;50.922;6.928;2023-02-25T11:48:48;6.40;99.90
34698;DHT22;61391;50.922;6.928;2023-02-25T11:54:45;7.10;99.90
34698;DHT22;61391;50.922;6.928;2023-02-25T12:00:13;7.80;99.90
34698;DHT22;61391;50.922;6.928;2023-02-25T12:05:46;7.70;99.90
34698;DHT22;61391;50.922;6.928;2023-02-25T12:11:21;7.80;99.90
34698;DHT22;61391;50.922;6.928;2023-02-25T12:14:16;7.80;99.90
34698;DHT22;61391;50.922;6.928;2023-02-25T12:20:02;7.90;99.90
34698;DHT22;61391;50.922;6.928;2023-02-25T12:25:51;8.00;99.90
34698;DHT22;61391;50.922;6.928;2023-02-25T12:28:34;7.90;99.90
34698;DHT22;61391;50.922;6.928;2023-02-25T12:31:52;7.90;99.90
34698;DHT22;61391;50.922;6.928;2023-02-25T12:44:29;8.20;99.90
34698;DHT22;61391;50.922;6.928;2023-02-25T12:57:43;8.60;99.90
34698;DHT22;61391;50.922;6.928;2023-02-25T13:09:24;8.80;99.90
34698;DHT22;61391;50.922;6.928;2023-02-25T13:15:12;9.30;99.90
34698;DHT22;61391;50.922;6.928;2023-02-25T13:17:57;9.30;99.90
34698;DHT22;61391;50.922;6.928;2023-02-25T13:20:57;8.90;99.90
34698;DHT22;61391;50.922;6.928;2023-02-25T13:26:58;7.00;99.90
34698;DHT22;61391;50.922;6.928;2023-02-25T13:35:04;7.00;99.90
34698;DHT22;61391;50.922;6.928;2023-02-25T13:46:08;7.50;99.90
34698;DHT22;61391;50.922;6.928;2023-02-25T13:52:07;7.60;99.90
34698;DHT22;61391;50.922;6.928;2023-02-25T13:55:15;7.60;99.90
34698;DHT22;61391;50.922;6.928;2023-02-25T13:58:05;7.50;99.90
34698;DHT22;61391;50.922;6.928;2023-02-25T14:01:19;7.60;99.90
34698;DHT22;61391;50.922;6.928;2023-02-25T14:07:35;7.70;99.90
34698;DHT22;61391;50.922;6.928;2023-02-25T14:13:13;8.30;99.90
34698;DHT22;61391;50.922;6.928;2023-02-25T14:18:56;8.30;99.90
34698;DHT22;61391;50.922;6.928;2023-02-25T14:28:04;7.80;99.90
34698;DHT22;61391;50.922;6.928;2023-02-25T14:36:50;7.90;99.90
34698;DHT22;61391;50.922;6.928;2023-02-25T14:58:08;8.20;99.90
34698;DHT22;61391;50.922;6.928;2023-02-25T15:01:04;8.30;99.90
34698;DHT22;61391;50.922;6.928;2023-02-25T15:21:42;7.90;99.90
34698;DHT22;61391;50.922;6.928;2023-02-25T15:24:35;7.60;99.90
34698;DHT22;61391;50.922;6.928;2023-02-25T15:27:01;7.50;99.90
34698;DHT22;61391;50.922;6.928;2023-02-25T15:29:49;7.50;99.90
34698;DHT22;61391;50.922;6.928;2023-02-25T15:32:23;7.50;99.90
34698;DHT22;61391;50.922;6.928;2023-02-25T15:35:05;7.50;99.90
34698;DHT22;61391;50.922;6.928;2023-02-25T15:37:36;7.60;99.90
34698;DHT22;61391;50.922;6.928;2023-02-25T15:42:45;7.60;99.90
34698;DHT22;61391;50.922;6.928;2023-02-25T15:53:59;7.50;99.90
34698;DHT22;61391;50.922;6.928;2023-02-25T15:56:28;7.30;99.90
34698;DHT22;61391;50.922;6.928;2023-02-25T15:58:56;7.30;99.90
34698;DHT22;61391;50.922;6.928;2023-02-25T16:01:39;7.30;99.90
34698;DHT22;61391;50.922;6.928;2023-02-25T16:04:39;7.20;99.90
34698;DHT22;61391;50.922;6.928;2023-02-25T16:07:07;7.10;99.90
34698;DHT22;61391;50.922;6.928;2023-02-25T16:12:59;7.20;99.90
34698;DHT22;61391;50.922;6.928;2023-02-25T16:15:32;7.10;99.90
34698;DHT22;61391;50.922;6.928;2023-02-25T16:18:11;7.10;99.90
34698;DHT22;61391;50.922;6.928;2023-02-25T16:21:00;7.20;99.90
34698;DHT22;61391;50.922;6.928;2023-02-25T16:23:29;7.10;99.90
34698;DHT22;61391;50.922;6.928;2023-02-25T16:26:12;7.00;99.90
34698;DHT22;61391;50.922;6.928;2023-02-25T16:31:39;7.00;99.90
34698;DHT22;61391;50.922;6.928;2023-02-25T16:40:26;6.70;99.90
34698;DHT22;61391;50.922;6.928;2023-02-25T16:49:43;6.50;99.90
34698;DHT22;61391;50.922;6.928;2023-02-25T16:52:16;6.40;99.90
34698;DHT22;61391;50.922;6.928;2023-02-25T16:58:22;6.40;99.90
34698;DHT22;61391;50.922;6.928;2023-02-25T17:04:19;6.40;99.90
34698;DHT22;61391;50.922;6.928;2023-02-25T17:09:29;6.20;99.90
34698;DHT22;61391;50.922;6.928;2023-02-25T17:15:25;6.30;99.90
34698;DHT22;61391;50.922;6.928;2023-02-25T17:17:56;6.30;99.90
34698;DHT22;61391;50.922;6.928;2023-02-25T17:20:25;6.10;99.90
34698;DHT22;61391;50.922;6.928;2023-02-25T17:22:58;5.90;99.90
34698;DHT22;61391;50.922;6.928;2023-02-25T17:28:56;6.20;99.90
34698;DHT22;61391;50.922;6.928;2023-02-25T17:31:25;6.10;99.90
34698;DHT22;61391;50.922;6.928;2023-02-25T17:33:54;6.10;99.90
34698;DHT22;61391;50.922;6.928;2023-02-25T17:36:31;5.90;99.90
34698;DHT22;61391;50.922;6.928;2023-02-25T17:39:05;5.90;99.90
34698;DHT22;61391;50.922;6.928;2023-02-25T17:44:53;5.80;99.90
34698;DHT22;61391;50.922;6.928;2023-02-25T17:47:26;5.70;99.90
34698;DHT22;61391;50.922;6.928;2023-02-25T17:49:54;5.80;99.90
34698;DHT22;61391;50.922;6.928;2023-02-25T17:52:30;5.70;99.90
34698;DHT22;61391;50.922;6.928;2023-02-25T17:55:04;5.70;99.90
34698;DHT22;61391;50.922;6.928;2023-02-25T17:57:31;5.70;99.90
34698;DHT22;61391;50.922;6.928;2023-02-25T18:02:38;5.70;99.90
34698;DHT22;61391;50.922;6.928;2023-02-25T18:05:25;5.80;99.90
34698;DHT22;61391;50.922;6.928;2023-02-25T18:08:19;5.80;99.90
34698;DHT22;61391;50.922;6.928;2023-02-25T18:10:47;5.70;99.90
34698;DHT22;61391;50.922;6.928;2023-02-25T18:13:30;5.70;99.90
34698;DHT22;61391;50.922;6.928;2023-02-25T18:28:21;5.60;99.90
34698;DHT22;61391;50.922;6.928;2023-02-25T18:30:47;5.50;99.90
34698;DHT22;61391;50.922;6.928;2023-02-25T18:33:15;5.40;99.90
34698;DHT22;61391;50.922;6.928;2023-02-25T18:39:03;5.50;99.90
34698;DHT22;61391;50.922;6.928;2023-02-25T18:44:51;5.40;99.90
34698;DHT22;61391;50.922;6.928;2023-02-25T18:47:17;5.30;99.90
34698;DHT22;61391;50.922;6.928;2023-02-25T18:49:44;5.20;99.90
34698;DHT22;61391;50.922;6.928;2023-02-25T18:52:20;5.10;99.90
34698;DHT22;61391;50.922;6.928;2023-02-25T18:58:13;5.20;99.90
34698;DHT22;61391;50.922;6.928;2023-02-25T19:00:38;5.10;99.90
34698;DHT22;61391;50.922;6.928;2023-02-25T19:03:05;4.90;99.90
34698;DHT22;61391;50.922;6.928;2023-02-25T19:05:31;4.90;99.90
34698;DHT22;61391;50.922;6.928;2023-02-25T19:08:00;4.90;99.90
34698;DHT22;61391;50.922;6.928;2023-02-25T19:13:48;4.90;99.90
34698;DHT22;61391;50.922;6.928;2023-02-25T19:19:38;4.90;99.90
34698;DHT22;61391;50.922;6.928;2023-02-25T19:22:17;4.70;99.90
34698;DHT22;61391;50.922;6.928;2023-02-25T19:28:27;4.80;99.90
34698;DHT22;61391;50.922;6.928;2023-02-25T19:31:18;4.80;99.90
34698;DHT22;61391;50.922;6.928;2023-02-25T19:34:06;4.70;99.90
34698;DHT22;61391;50.922;6.928;2023-02-25T19:39:53;4.70;99.90
34698;DHT22;61391;50.922;6.928;2023-02-25T19:42:19;4.80;99.90
34698;DHT22;61391;50.922;6.928;2023-02-25T19:45:17;4.80;99.90
34698;DHT22;61391;50.922;6.928;2023-02-25T19:47:43;4.80;99.90
34698;DHT22;61391;50.922;6.928;2023-02-25T19:50:09;4.80;99.90
34698;DHT22;61391;50.922;6.928;2023-02-25T19:52:36;4.70;99.90
34698;DHT22;61391;50.922;6.928;2023-02-25T19:55:02;4.70;99.90
34698;DHT22;61391;50.922;6.928;2023-02-25T19:57:29;4.70;99.90
34698;DHT22;61391;50.922;6.928;2023-02-25T19:59:54;4.90;99.90
34698;DHT22;61391;50.922;6.928;2023-02-25T20:05:48;4.70;99.90
34698;DHT22;61391;50.922;6.928;2023-02-25T20:08:14;4.90;99.90
34698;DHT22;61391;50.922;6.928;2023-02-25T20:10:42;5.00;99.90
34698;DHT22;61391;50.922;6.928;2023-02-25T20:13:08;4.70;99.90
34698;DHT22;61391;50.922;6.928;2023-02-25T20:15:35;4.60;99.90
34698;DHT22;61391;50.922;6.928;2023-02-25T20:18:05;4.50;99.90
34698;DHT22;61391;50.922;6.928;2023-02-25T20:20:31;4.40;99.90
34698;DHT22;61391;50.922;6.928;2023-02-25T20:22:57;4.50;99.90
34698;DHT22;61391;50.922;6.928;2023-02-25T20:29:12;4.50;99.90
34698;DHT22;61391;50.922;6.928;2023-02-25T20:31:38;4.40;99.90
34698;DHT22;61391;50.922;6.928;2023-02-25T20:34:04;4.40;99.90
34698;DHT22;61391;50.922;6.928;2023-02-25T20:36:37;4.40;99.90
34698;DHT22;61391;50.922;6.928;2023-02-25T20:42:28;4.50;99.90
34698;DHT22;61391;50.922;6.928;2023-02-25T20:44:58;4.40;99.90
34698;DHT22;61391;50.922;6.928;2023-02-25T20:47:56;4.30;99.90
34698;DHT22;61391;50.922;6.928;2023-02-25T20:50:25;4.40;99.90
34698;DHT22;61391;50.922;6.928;2023-02-25T20:56:17;4.20;99.90
34698;DHT22;61391;50.922;6.928;2023-02-25T20:58:43;4.50;99.90
34698;DHT22;61391;50.922;6.928;2023-02-25T21:11:15;4.60;99.90
34698;DHT22;61391;50.922;6.928;2023-02-25T21:17:03;4.40;99.90
34698;DHT22;61391;50.922;6.928;2023-02-25T21:19:33;4.30;99.90
34698;DHT22;61391;50.922;6.928;2023-02-25T21:21:59;4.30;99.90
34698;DHT22;61391;50.922;6.928;2023-02-25T21:27:46;4.00;99.90
34698;DHT22;61391;50.922;6.928;2023-02-25T21:30:12;4.10;99.90
34698;DHT22;61391;50.922;6.928;2023-02-25T21:36:01;4.20;99.90
34698;DHT22;61391;50.922;6.928;2023-02-25T21:38:27;4.10;99.90
34698;DHT22;61391;50.922;6.928;2023-02-25T21:44:14;4.00;99.90
34698;DHT22;61391;50.922;6.928;2023-02-25T21:50:02;4.00;99.90
34698;DHT22;61391;50.922;6.928;2023-02-25T21:55:50;4.10;99.90
34698;DHT22;61391;50.922;6.928;2023-02-25T21:58:19;4.20;99.90
34698;DHT22;61391;50.922;6.928;2023-02-25T22:00:45;4.20;99.90
34698;DHT22;61391;50.922;6.928;2023-02-25T22:03:35;4.10;99.90
34698;DHT22;61391;50.922;6.928;2023-02-25T22:06:01;3.90;99.90
34698;DHT22;61391;50.922;6.928;2023-02-25T22:08:27;3.90;99.90
34698;DHT22;61391;50.922;6.928;2023-02-25T22:14:15;4.00;99.90
34698;DHT22;61391;50.922;6.928;2023-02-25T22:16:41;4.10;99.90
34698;DHT22;61391;50.922;6.928;2023-02-25T22:19:09;4.10;99.90
34698;DHT22;61391;50.922;6.928;2023-02-25T22:21:36;3.80;99.90
34698;DHT22;61391;50.922;6.928;2023-02-25T22:24:23;3.80;99.90
34698;DHT22;61391;50.922;6.928;2023-02-25T22:26:48;3.80;99.90
34698;DHT22;61391;50.922;6.928;2023-02-25T22:29:16;3.70;99.90
34698;DHT22;61391;50.922;6.928;2023-02-25T22:31:46;3.80;99.90
34698;DHT22;61391;50.922;6.928;2023-02-25T22:34:12;3.80;99.90
34698;DHT22;61391;50.922;6.928;2023-02-25T22:36:38;4.20;99.90
34698;DHT22;61391;50.922;6.928;2023-02-25T22:39:07;4.60;99.90
34698;DHT22;61391;50.922;6.928;2023-02-25T22:51:41;4.30;99.90
34698;DHT22;61391;50.922;6.928;2023-02-25T22:54:09;4.40;99.90
34698;DHT22;61391;50.922;6.928;2023-02-25T22:56:35;4.20;99.90
34698;DHT22;61391;50.922;6.928;2023-02-25T23:02:51;4.10;99.90
34698;DHT22;61391;50.922;6.928;2023-02-25T23:05:17;4.10;99.90
34698;DHT22;61391;50.922;6.928;2023-02-25T23:07:42;4.30;99.90
34698;DHT22;61391;50.922;6.928;2023-02-25T23:10:10;4.20;99.90
34698;DHT22;61391;50.922;6.928;2023-02-25T23:12:36;4.10;99.90
34698;DHT22;61391;50.922;6.928;2023-02-25T23:15:01;4.00;99.90
34698;DHT22;61391;50.922;6.928;2023-02-25T23:17:27;3.90;99.90
34698;DHT22;61391;50.922;6.928;2023-02-25T23:19:53;3.80;99.90
34698;DHT22;61391;50.922;6.928;2023-02-25T23:25:51;3.90;99.90
34698;DHT22;61391;50.922;6.928;2023-02-25T23:28:17;3.60;99.90
34698;DHT22;61391;50.922;6.928;2023-02-25T23:30:43;3.50;99.90
34698;DHT22;61391;50.922;6.928;2023-02-25T23:33:08;3.20;99.90
34698;DHT22;61391;50.922;6.928;2023-02-25T23:35:34;3.20;99.90